ADDS METAR Data INFO
IDs: Format: Raw Decoded Include TAF

Data at: 0753 UTC 23 Apr 2018

KBMT 230735Z AUTO 00000KT 10SM CLR 12/11 A3002 RMK AO2 T01210105
KBMT 230715Z AUTO 23003KT 10SM CLR 12/11 A3002 RMK AO2 T01220105
KBMT 230655Z AUTO 00000KT 10SM CLR 13/11 A3002 RMK AO2 T01300108
KBMT 230635Z AUTO 00000KT 10SM CLR 13/11 A3003 RMK AO2 T01310110
KBMT 230615Z AUTO 00000KT 10SM CLR 14/11 A3002 RMK AO2 T01360110
KBMT 230555Z AUTO 33003KT 10SM CLR 14/11 A3002 RMK AO2 T01350106 10202 20134 402120134
KBMT 230535Z AUTO 00000KT 10SM CLR 14/11 A3002 RMK AO2 T01370106
KBMT 230515Z AUTO 34003KT 10SM CLR 14/11 A3002 RMK AO2 T01400109
KBMT 230455Z AUTO 34005KT 10SM CLR 14/11 A3002 RMK AO2 T01410111
KBMT 230435Z AUTO 33005KT 10SM CLR 14/11 A3002 RMK AO2 T01430113
KBMT 230415Z AUTO 33005KT 10SM CLR 14/12 A3002 RMK AO2 T01410116
KBMT 230355Z AUTO 32005KT 10SM CLR 15/12 A3002 RMK AO2 T01470116
KBMT 230335Z AUTO 30005KT 10SM CLR 15/12 A3002 RMK AO2 T01510117
KBMT 230315Z AUTO 30004KT 10SM CLR 16/12 A3002 RMK AO2 T01550118
KBMT 230255Z AUTO 30005KT 10SM CLR 16/12 A3002 RMK AO2 T01570119
KBMT 230235Z AUTO 30005KT 10SM CLR 16/12 A3001 RMK AO2 T01590120
KBMT 230215Z AUTO 29004KT 10SM CLR 16/12 A3000 RMK AO2 T01630120
KBMT 230155Z AUTO 31003KT 10SM CLR 17/12 A3000 RMK AO2 T01660121
KBMT 230135Z AUTO 31003KT 10SM CLR 17/12 A3000 RMK AO2 T01680120
KBMT 230115Z AUTO 29003KT 10SM CLR 17/12 A2999 RMK AO2 T01670120
KBMT 230055Z AUTO 32006KT 10SM CLR 18/12 A2998 RMK AO2 T01750120
KBMT 230035Z AUTO 31007KT 10SM CLR 19/12 A2997 RMK AO2 T01870118
KBMT 230015Z AUTO 31009G15KT 10SM CLR 20/11 A2997 RMK AO2 T01980113
KBMT 222355Z AUTO 32011KT 10SM CLR 20/12 A2997 RMK AO2 T02030117 10212 20153
KBMT 222335Z AUTO 32010KT 10SM CLR 21/12 A2997 RMK AO2 T02070117
KBMT 222315Z AUTO 31010KT 10SM CLR 21/12 A2997 RMK AO2 T02100117
KBMT 222255Z AUTO 32008KT 10SM CLR 21/12 A2997 RMK AO2 T02100116
KBMT 222235Z AUTO 29008KT 10SM CLR 21/12 A2997 RMK AO2 T02120122
KBMT 222215Z AUTO 30009KT 10SM CLR 21/12 A2997 RMK AO2 T02100119
KBMT 222155Z AUTO 30010G15KT 10SM CLR 21/12 A2997 RMK AO2 T02070116
KBMT 222135Z AUTO 32010KT 10SM CLR 21/12 A2997 RMK AO2 T02060121
KBMT 222115Z AUTO 32011KT 10SM CLR 20/12 A2998 RMK AO2 T02010119
KBMT 222055Z AUTO 33010KT 10SM CLR 20/12 A2999 RMK AO2 T01990123
KBMT 222035Z AUTO 32010KT 10SM SCT023 19/12 A3000 RMK AO2 T01910122
KBMT 222015Z AUTO 32011KT 10SM BKN023 19/12 A3001 RMK AO2 T01860123
KBMT 221955Z AUTO 34013G21KT 10SM BKN021 19/12 A3001 RMK AO2 T01860117
KBMT 221935Z AUTO 32014G19KT 10SM OVC021 18/12 A3002 RMK AO2 T01760118
KBMT 221915Z AUTO 31012KT 10SM OVC017 17/12 A3002 RMK AO2 T01700119
KBMT 221855Z AUTO 32015G19KT 10SM SCT010 OVC015 16/12 A3002 RMK AO2 T01630122
KBMT 221835Z AUTO 31015G20KT 10SM OVC010 16/13 A3002 RMK AO2 T01560129
KBMT 221815Z AUTO 31013G18KT 10SM OVC010 16/13 A3003 RMK AO2 T01570126
KBMT 221755Z AUTO 30015G20KT 10SM OVC008 16/13 A3002 RMK AO2 T01570128 10202 20156
KBMT 221735Z AUTO 29013KT 10SM OVC010 16/13 A3003 RMK AO2 T01610132
KBMT 221715Z AUTO 31014G19KT 10SM OVC012 17/13 A3003 RMK AO2 T01680130
KBMT 221655Z AUTO 31011G18KT 10SM OVC010 17/14 A3003 RMK AO2 T01710139
KBMT 221635Z AUTO 30013KT 10SM OVC010 18/14 A3002 RMK AO2 T01750144
KBMT 221615Z AUTO 31010G16KT 10SM OVC010 18/15 A3001 RMK AO2 T01780148
KBMT 221555Z AUTO 30009KT 10SM OVC010 18/15 A3001 RMK AO2 T01770152
KBMT 221535Z AUTO 31013KT 10SM OVC010 18/15 A3000 RMK AO2 T01800151
KBMT 221515Z AUTO 32012KT 10SM OVC010 18/16 A3000 RMK AO2 T01810155
KBMT 221455Z AUTO 31012KT 10SM OVC014 19/16 A2999 RMK AO2 T01880160
KBMT 221435Z AUTO 33013KT 10SM BKN014 19/16 A2998 RMK AO2 T01930160
KBMT 221415Z AUTO 33010KT 10SM BKN010 BKN015 20/17 A2997 RMK AO2 T02010170
KBMT 221355Z AUTO 33010KT 10SM BKN008 OVC013 19/17 A2997 RMK AO2 T01860168
KBMT 221335Z AUTO 32010KT 10SM OVC005 18/17 A2997 RMK AO2 T01820168
KBMT 221315Z AUTO 31014G18KT 10SM OVC005 18/17 A2997 RMK AO2 T01830170
KBMT 221255Z AUTO 31015G19KT 5SM BR OVC003 19/18 A2996 RMK AO2 T01880176
KBMT 221235Z AUTO 30011KT 10SM OVC007 19/18 A2995 RMK AO2 T01890176
KBMT 221215Z AUTO 31008KT 10SM BKN007 OVC014 19/18 A2994 RMK AO2 T01900176
KBMT 221155Z AUTO 32007KT 10SM BKN005 BKN009 OVC012 19/18 A2993 RMK AO2 T01880176 10212 20185
KBMT 221135Z AUTO 32011G14KT 10SM BKN007 BKN010 OVC031 19/18 A2992 RMK AO2 T01880176
KBMT 221115Z AUTO 30006KT 10SM BKN031 19/18 A2992 RMK AO2 T01870176
KBMT 221055Z AUTO 34004KT 10SM SCT006 SCT017 19/18 A2991 RMK AO2 T01880175
KBMT 221035Z AUTO 35006KT 10SM BKN006 OVC015 19/18 A2990 RMK AO2 T01920180
KBMT 221015Z AUTO 34009KT 10SM RA BKN006 BKN011 OVC023 20/19 A2990 RMK AO2 T01970185
KBMT 220955Z AUTO 30007KT 10SM SCT011 SCT023 BKN042 20/19 A2989 RMK AO2 T01950185
KBMT 220935Z AUTO 31006KT 7SM SCT008 SCT042 SCT065 19/18 A2989 RMK AO2 T01940182
KBMT 220915Z AUTO 31004KT 10SM SCT010 BKN016 OVC065 19/18 A2989 RMK AO2 T01920180
KBMT 220855Z AUTO 00000KT 10SM OVC014 20/18 A2989 RMK AO2 T01950181
KBMT 220835Z AUTO 00000KT 10SM OVC014 20/18 A2988 RMK AO2 T01980182
KBMT 220815Z AUTO 15003KT 10SM -DZ SCT007 OVC012 20/19 A2988 RMK AO2 T02000185
KBMT 220755Z AUTO 11004KT 7SM DZ BKN011 BKN014 OVC023 20/19 A2989 RMK AO2 T02020187
KBMT 220735Z AUTO 15006KT 10SM -DZ SCT011 BKN034 OVC060 20/19 A2990 RMK AO2 T02010185
KBMT 220715Z AUTO 15011G18KT 4SM RA SCT010 BKN035 OVC047 21/19 A2990 RMK AO2 LTG DSNT SE T02050190
KBMT 220655Z AUTO 17008G18KT 4SM +RA BKN007 BKN015 OVC037 21/20 A2993 RMK AO2 T02090195
KBMT 220635Z AUTO 22005KT 2 1/2SM /VCTSRA OVC005 21/20 A2994 RMK AO2 LTG DSNT SE T02110198
KBMT 220615Z AUTO 36007KT 2 1/2SM +RA OVC005 21/20 A2991 RMK AO2 LTG DSNT SE AND S T02120199
KBMT 220555Z AUTO 12006KT 090V150 3SM +RA OVC007 21/20 A2991 RMK AO2 LTG DSNT E THRU SW T02130198 10223 20210 402370151
KBMT 220535Z AUTO 12009KT 5SM TSRA OVC007 21/20 A2992 RMK AO2 LTG DSNT SE T02130197
KBMT 220515Z AUTO 13010G14KT 5SM VCTSRA OVC009 21/20 A2992 RMK AO2 LTG DSNT NE THRU SW T02130196
KBMT 220455Z AUTO 13010G15KT 7SM TSRA OVC009 22/20 A2992 RMK AO2 LTG DSNT N NE AND SW T02150196
KBMT 220435Z AUTO 13013G17KT 7SM -RA OVC009 21/20 A2991 RMK AO2 LTG DSNT W THRU NE T02120195
KBMT 220415Z AUTO 13010G15KT 10SM VCTSRA BKN011 OVC014 21/19 A2990 RMK AO2 LTG DSNT W THRU NE T02110193
KBMT 220355Z AUTO 12013G16KT 7SM -VCTSRA OVC011 21/19 A2989 RMK AO2 LTG DSNT NW THRU NE T02100192
KBMT 220335Z AUTO 13012G15KT 5SM DZ OVC011 21/19 A2992 RMK AO2 LTG DSNT W THRU NE T02110191
KBMT 220315Z AUTO 13009KT 10SM OVC013 22/19 A2994 RMK AO2 LTG DSNT NW T02160187
KBMT 220255Z AUTO 13008G14KT 10SM VCTS OVC013 22/19 A2993 RMK AO2 LTG DSNT N AND NW T02150186
KBMT 220235Z AUTO 13010KT 10SM OVC013 21/19 A2994 RMK AO2 T02130186
KBMT 220215Z AUTO 12009KT 10SM OVC013 21/19 A2994 RMK AO2 LTG DSNT W AND NW T02130185
KBMT 220155Z AUTO 11011KT 10SM BKN013 OVC022 21/19 A2993 RMK AO2 LTG DSNT W T02130185
KBMT 220135Z AUTO 12007G14KT 10SM BKN015 OVC020 22/19 A2995 RMK AO2 LTG DSNT E T02150185
KBMT 220115Z AUTO 12010KT 10SM OVC016 22/18 A2994 RMK AO2 T02170182
KBMT 220055Z AUTO 13010KT 10SM OVC016 22/18 A2994 RMK AO2 LTG DSNT N T02200181
KBMT 220035Z AUTO 13011G15KT 10SM OVC016 22/18 A2995 RMK AO2 T02210180
KBMT 220015Z AUTO 14010KT 10SM OVC019 22/18 A2995 RMK AO2 LTG DSNT W T02220180
KBMT 212355Z AUTO 13012G18KT 10SM BKN021 BKN025 OVC060 22/18 A2996 RMK AO2 T02230180 10237 20223
KBMT 212335Z AUTO 13011G17KT 10SM BKN021 OVC060 22/18 A2996 RMK AO2 T02240179
KBMT 212315Z AUTO 14013G18KT 10SM BKN023 BKN060 OVC070 23/18 A2997 RMK AO2 T02250179
KBMT 212255Z AUTO 13012G18KT 10SM SCT018 BKN023 OVC055 23/18 A2996 RMK AO2 T02250179
KBMT 212235Z AUTO 14013G18KT 10SM BKN023 OVC055 23/18 A2997 RMK AO2 LTG DSNT NW T02260178
KBMT 212215Z AUTO 14010G18KT 10SM BKN023 OVC055 23/18 A2997 RMK AO2 LTG DSNT N T02270178
KBMT 212155Z AUTO 14010G20KT 10SM BKN021 OVC055 23/18 A2997 RMK AO2 T02260177
KBMT 212135Z AUTO 13015KT 10SM -RA BKN021 OVC055 23/18 A2997 RMK AO2 T02250177
KBMT 212115Z AUTO 13012G17KT 10SM OVC021 23/18 A2999 RMK AO2 T02280176
KBMT 212055Z AUTO 13011G15KT 10SM BKN023 BKN043 OVC070 23/18 A3000 RMK AO2 T02300176
KBMT 212035Z AUTO 13011G17KT 10SM BKN023 BKN043 OVC070 23/18 A3001 RMK AO2 T02320176
KBMT 212015Z AUTO 15011G15KT 10SM OVC021 23/18 A3002 RMK AO2 T02290175
KBMT 211955Z AUTO 13012G15KT 10SM OVC021 23/18 A3001 RMK AO2 T02310176